createdAt,value
2017-12-19T00:02:04.538Z,73.60
2017-12-19T00:04:32.683Z,73.20
2017-12-19T00:07:00.861Z,73.20
2017-12-19T00:09:29.766Z,73.20
2017-12-19T00:11:57.973Z,73.20
2017-12-19T00:14:26.123Z,73.60
2017-12-19T00:16:54.286Z,72.80
2017-12-19T00:19:23.187Z,72.80
2017-12-19T00:21:51.344Z,72.90
2017-12-19T00:24:20.347Z,73.20
2017-12-19T00:26:49.297Z,73.80
2017-12-19T00:29:17.444Z,74.50
2017-12-19T00:31:45.562Z,73.00
2017-12-19T00:34:13.721Z,72.50
2017-12-19T00:36:41.862Z,72.80
2017-12-19T00:39:10.025Z,73.60
2017-12-19T00:41:38.171Z,74.30
2017-12-19T00:44:07.078Z,74.20
2017-12-19T00:46:35.210Z,74.20
2017-12-19T00:49:03.625Z,74.20
2017-12-19T00:51:31.823Z,74.20
2017-12-19T00:53:59.990Z,74.40
2017-12-19T00:56:28.144Z,74.40
2017-12-19T00:58:57.063Z,75.20
2017-12-19T01:01:25.186Z,75.20
2017-12-19T01:03:53.334Z,75.70
2017-12-19T01:06:21.494Z,75.50
2017-12-19T01:08:49.694Z,76.60
2017-12-19T01:11:17.966Z,76.30
2017-12-19T01:13:46.113Z,76.40
2017-12-19T01:16:14.247Z,76.80
2017-12-19T01:18:43.190Z,76.80
2017-12-19T01:21:11.318Z,76.80
2017-12-19T01:23:40.238Z,76.60
2017-12-19T01:26:08.387Z,76.60
2017-12-19T01:28:37.306Z,76.50
2017-12-19T01:31:05.441Z,76.30
2017-12-19T01:33:34.398Z,75.90
2017-12-19T01:36:02.991Z,76.00
2017-12-19T01:38:31.110Z,76.40
2017-12-19T01:40:59.263Z,76.80
2017-12-19T01:43:28.158Z,76.30
2017-12-19T01:45:57.081Z,74.90
2017-12-19T01:48:25.206Z,74.90
2017-12-19T01:50:53.369Z,74.40
2017-12-19T01:53:21.490Z,74.90
2017-12-19T01:55:49.660Z,75.20
2017-12-19T01:58:17.790Z,75.80
2017-12-19T02:00:45.974Z,76.30
2017-12-19T02:03:14.105Z,76.30
2017-12-19T02:05:42.291Z,76.00
2017-12-19T02:08:10.426Z,75.40
2017-12-19T02:10:38.620Z,75.80
2017-12-19T02:13:06.760Z,75.00
2017-12-19T02:15:35.703Z,74.80
2017-12-19T02:18:03.855Z,74.80
2017-12-19T02:20:32.041Z,75.00
2017-12-19T02:23:00.152Z,75.20
2017-12-19T02:25:28.327Z,76.20
2017-12-19T02:27:56.458Z,75.70
2017-12-19T02:30:24.668Z,75.60
2017-12-19T02:32:53.609Z,76.30
2017-12-19T02:35:21.793Z,76.30
2017-12-19T02:37:49.960Z,76.30
2017-12-19T02:40:18.089Z,76.90
2017-12-19T02:42:58.778Z,77.10
2017-12-19T02:45:27.713Z,76.70
2017-12-19T02:47:55.835Z,76.90
2017-12-19T02:50:24.743Z,77.10
2017-12-19T02:52:52.918Z,77.00
2017-12-19T02:55:21.053Z,78.20
2017-12-19T02:57:49.206Z,78.60
2017-12-19T03:00:17.336Z,78.70
2017-12-19T03:02:45.505Z,78.30
2017-12-19T03:05:14.395Z,78.40
2017-12-19T03:07:43.324Z,78.80
2017-12-19T03:10:11.453Z,78.70
2017-12-19T03:12:39.676Z,78.50
2017-12-19T03:15:07.818Z,78.40
2017-12-19T03:17:35.979Z,79.20
2017-12-19T03:20:04.439Z,79.10
2017-12-19T03:22:33.399Z,78.40
2017-12-19T03:25:01.545Z,78.40
2017-12-19T03:27:29.710Z,79.10
2017-12-19T03:29:57.846Z,78.70
2017-12-19T03:32:25.998Z,79.50
2017-12-19T03:34:54.146Z,79.70
2017-12-19T03:37:22.322Z,79.80
2017-12-19T03:39:50.457Z,79.60
2017-12-19T03:42:19.369Z,79.20
2017-12-19T03:44:47.515Z,79.10
2017-12-19T03:47:16.458Z,78.40
2017-12-19T03:49:44.600Z,78.40
2017-12-19T03:52:13.552Z,77.50
2017-12-19T03:54:41.680Z,77.50
2017-12-19T03:57:09.849Z,78.20
2017-12-19T03:59:37.989Z,78.30
2017-12-19T04:02:06.190Z,77.80
2017-12-19T04:04:35.122Z,78.00
2017-12-19T04:07:03.262Z,78.00
2017-12-19T04:09:31.416Z,77.50
2017-12-19T04:12:00.319Z,78.10
2017-12-19T04:14:29.238Z,78.60
2017-12-19T04:16:57.396Z,78.50
2017-12-19T04:19:25.559Z,78.40
2017-12-19T04:21:53.694Z,78.30
2017-12-19T04:24:21.850Z,78.50
2017-12-19T04:26:49.991Z,78.50
2017-12-19T04:29:18.162Z,78.80
2017-12-19T04:31:46.275Z,79.30
2017-12-19T04:34:14.461Z,79.20
2017-12-19T04:36:42.602Z,78.90
2017-12-19T04:39:10.930Z,78.90
2017-12-19T04:41:39.083Z,79.00
2017-12-19T04:44:07.227Z,78.80
2017-12-19T04:46:35.345Z,78.70
2017-12-19T04:49:03.833Z,79.10
2017-12-19T04:51:32.194Z,79.20
2017-12-19T04:54:00.362Z,79.20
2017-12-19T04:56:28.486Z,78.90
2017-12-19T04:58:56.653Z,79.50
2017-12-19T05:01:25.659Z,79.10
2017-12-19T05:03:53.997Z,79.00
2017-12-19T05:06:22.150Z,79.10
2017-12-19T05:08:50.376Z,79.50
2017-12-19T05:11:18.533Z,80.00
2017-12-19T05:13:47.471Z,79.40
2017-12-19T05:16:15.626Z,79.30
2017-12-19T05:18:43.775Z,79.60
2017-12-19T05:21:12.677Z,79.80
2017-12-19T05:23:41.618Z,79.70
2017-12-19T05:26:09.742Z,79.70
2017-12-19T05:28:38.668Z,79.20
2017-12-19T05:31:06.853Z,79.20
2017-12-19T05:33:34.976Z,79.60
2017-12-19T05:36:03.909Z,79.50
2017-12-19T05:38:32.028Z,79.50
2017-12-19T05:41:00.177Z,80.40
2017-12-19T05:43:28.345Z,81.10
2017-12-19T05:45:57.687Z,81.30
2017-12-19T05:48:26.702Z,80.60
2017-12-19T05:50:54.869Z,80.60
2017-12-19T05:53:23.010Z,81.00
2017-12-19T05:55:51.968Z,79.50
2017-12-19T05:58:20.112Z,79.50
2017-12-19T06:00:48.266Z,80.20
2017-12-19T06:03:17.472Z,80.30
2017-12-19T06:05:45.641Z,80.30
2017-12-19T06:08:14.549Z,80.50
2017-12-19T06:10:43.918Z,80.40
2017-12-19T06:13:12.046Z,80.70
2017-12-19T06:15:40.214Z,80.40
2017-12-19T06:18:08.332Z,79.70
2017-12-19T06:20:36.486Z,80.00
2017-12-19T06:23:04.715Z,79.60
2017-12-19T06:25:32.878Z,79.80
2017-12-19T06:28:01.787Z,81.20
2017-12-19T06:30:31.138Z,81.20
2017-12-19T06:32:59.291Z,80.40
2017-12-19T06:35:27.465Z,80.10
2017-12-19T06:37:55.605Z,80.00
2017-12-19T06:40:23.758Z,79.60
2017-12-19T06:42:52.656Z,79.20
2017-12-19T06:45:21.607Z,79.10
2017-12-19T06:47:49.742Z,79.10
2017-12-19T06:50:17.898Z,79.30
2017-12-19T06:52:46.787Z,79.00
2017-12-19T06:55:14.954Z,79.00
2017-12-19T06:57:43.868Z,80.30
2017-12-19T07:00:12.160Z,80.30
2017-12-19T07:02:40.288Z,80.30
2017-12-19T07:05:09.182Z,79.50
2017-12-19T07:07:39.202Z,79.50
2017-12-19T07:10:08.099Z,79.10
2017-12-19T07:12:36.397Z,79.10
2017-12-19T07:15:04.734Z,79.20
2017-12-19T07:17:32.966Z,79.10
2017-12-19T07:20:02.125Z,80.00
2017-12-19T07:22:31.295Z,80.40
2017-12-19T07:24:59.460Z,80.40
2017-12-19T07:27:27.615Z,81.20
2017-12-19T07:29:55.762Z,81.10
2017-12-19T07:32:23.923Z,81.10
2017-12-19T07:34:52.824Z,79.70
2017-12-19T07:37:21.032Z,79.70
2017-12-19T07:39:49.202Z,80.60
2017-12-19T07:42:17.383Z,80.80
2017-12-19T07:44:46.334Z,80.70
2017-12-19T07:47:15.616Z,80.60
2017-12-19T07:49:43.743Z,80.60
2017-12-19T07:52:11.928Z,80.60
2017-12-19T07:54:40.094Z,80.70
2017-12-19T07:57:08.313Z,80.60
2017-12-19T07:59:36.474Z,80.60
2017-12-19T08:02:04.664Z,79.60
2017-12-19T08:04:32.833Z,80.10
2017-12-19T08:07:01.000Z,79.90
2017-12-19T08:09:29.131Z,80.00
2017-12-19T08:11:57.294Z,79.50
2017-12-19T08:14:25.491Z,79.40
2017-12-19T08:16:53.675Z,79.40
2017-12-19T08:19:21.839Z,78.90
2017-12-19T08:21:50.044Z,78.80
2017-12-19T08:24:18.197Z,78.90
2017-12-19T08:26:46.330Z,79.00
2017-12-19T08:29:15.256Z,80.00
2017-12-19T08:31:43.407Z,80.00
2017-12-19T08:34:11.578Z,79.90
2017-12-19T08:36:39.716Z,80.60
2017-12-19T08:39:07.926Z,80.90
2017-12-19T08:41:36.094Z,81.60
2017-12-19T08:44:04.534Z,81.90
2017-12-19T08:46:32.684Z,81.70
2017-12-19T08:49:00.833Z,80.40
2017-12-19T08:51:28.983Z,81.20
2017-12-19T08:53:57.953Z,81.10
2017-12-19T08:56:26.215Z,81.10
2017-12-19T08:58:54.361Z,81.80
2017-12-19T09:01:22.516Z,81.90
2017-12-19T09:03:50.679Z,82.00
2017-12-19T09:06:19.582Z,82.50
2017-12-19T09:08:47.747Z,82.60
2017-12-19T09:11:16.651Z,83.90
2017-12-19T09:13:44.856Z,83.90
2017-12-19T09:16:12.998Z,84.70
2017-12-19T09:18:41.184Z,84.70
2017-12-19T09:21:09.338Z,85.20
2017-12-19T09:23:37.547Z,85.40
2017-12-19T09:26:05.689Z,84.90
2017-12-19T09:28:33.850Z,84.80
2017-12-19T09:31:03.247Z,84.50
2017-12-19T09:33:31.402Z,84.50
2017-12-19T09:35:59.546Z,83.50
2017-12-19T09:38:27.712Z,82.70
2017-12-19T09:40:55.854Z,82.80
2017-12-19T09:43:24.765Z,83.30
2017-12-19T09:45:52.898Z,83.30
2017-12-19T09:48:21.082Z,83.00
2017-12-19T09:50:49.198Z,82.80
2017-12-19T09:53:17.359Z,82.60
2017-12-19T09:55:45.514Z,82.20
2017-12-19T09:58:13.700Z,81.90
2017-12-19T10:00:41.853Z,83.10
2017-12-19T10:03:10.768Z,82.80
2017-12-19T10:05:38.918Z,82.80
2017-12-19T10:08:07.810Z,81.60
2017-12-19T10:10:36.730Z,82.20
2017-12-19T10:13:04.858Z,82.20
2017-12-19T10:15:33.030Z,81.70
2017-12-19T10:18:01.154Z,82.20
2017-12-19T10:20:29.404Z,82.30
2017-12-19T10:22:57.546Z,82.50
2017-12-19T10:25:25.718Z,82.40
2017-12-19T10:27:53.845Z,82.60
2017-12-19T10:30:21.997Z,83.50
2017-12-19T10:32:50.892Z,82.90
2017-12-19T10:35:19.817Z,82.80
2017-12-19T10:37:48.015Z,82.70
2017-12-19T10:40:16.186Z,83.50
2017-12-19T10:42:44.314Z,83.60
2017-12-19T10:45:12.485Z,83.80
2017-12-19T10:47:41.361Z,83.30
2017-12-19T10:50:10.275Z,82.80
2017-12-19T10:52:38.406Z,82.80
2017-12-19T10:55:06.710Z,82.80
2017-12-19T10:57:35.597Z,82.60
2017-12-19T11:00:04.538Z,82.50
2017-12-19T11:02:37.570Z,82.40
2017-12-19T11:05:05.754Z,83.10
2017-12-19T11:07:34.645Z,82.80
2017-12-19T11:10:03.839Z,83.10
2017-12-19T11:12:32.759Z,84.40
2017-12-19T11:15:00.949Z,84.40
2017-12-19T11:17:29.109Z,84.20
2017-12-19T11:19:57.262Z,84.60
2017-12-19T11:22:25.386Z,84.00
2017-12-19T11:24:53.532Z,84.20
2017-12-19T11:27:21.662Z,83.30
2017-12-19T11:29:49.862Z,83.00
2017-12-19T11:32:18.135Z,82.40
2017-12-19T11:34:47.044Z,81.80
2017-12-19T11:37:15.180Z,81.80
2017-12-19T11:39:44.094Z,82.10
2017-12-19T11:42:12.214Z,82.10
2017-12-19T11:44:40.399Z,82.00
2017-12-19T11:47:08.532Z,82.00
2017-12-19T11:49:36.706Z,82.20
2017-12-19T11:52:04.856Z,83.00
2017-12-19T11:54:33.738Z,83.10
2017-12-19T11:57:02.658Z,83.40
2017-12-19T11:59:30.789Z,83.40
2017-12-19T12:01:59.733Z,84.20
2017-12-19T12:04:27.884Z,84.20
2017-12-19T12:06:56.048Z,84.20
2017-12-19T12:09:24.934Z,84.20
2017-12-19T12:11:53.838Z,84.60
2017-12-19T12:14:21.957Z,84.60
2017-12-19T12:16:50.104Z,84.20
2017-12-19T12:19:18.226Z,84.20
2017-12-19T12:21:46.370Z,83.50
2017-12-19T12:24:14.635Z,82.90
2017-12-19T12:26:42.782Z,83.80
2017-12-19T12:29:10.932Z,83.30
2017-12-19T12:31:39.861Z,82.50
2017-12-19T12:34:07.991Z,82.50
2017-12-19T12:36:37.206Z,82.40
2017-12-19T12:39:06.154Z,82.20
2017-12-19T12:41:34.430Z,82.20
2017-12-19T12:44:02.714Z,82.30
2017-12-19T12:46:30.860Z,81.80
2017-12-19T12:48:59.053Z,81.40
2017-12-19T12:51:27.204Z,81.80
2017-12-19T12:53:55.318Z,82.00
2017-12-19T12:56:23.512Z,81.60
2017-12-19T12:58:51.841Z,81.50
2017-12-19T13:01:19.997Z,81.50
2017-12-19T13:03:48.151Z,81.60
2017-12-19T13:06:17.082Z,82.20
2017-12-19T13:08:45.235Z,82.20
2017-12-19T13:11:13.366Z,82.10
2017-12-19T13:13:41.575Z,81.70
2017-12-19T13:16:09.800Z,81.30
2017-12-19T13:18:37.961Z,82.40
2017-12-19T13:21:06.101Z,81.90
2017-12-19T13:23:34.258Z,80.90
2017-12-19T13:26:02.660Z,80.80
2017-12-19T13:28:30.806Z,80.40
2017-12-19T13:30:59.702Z,80.20
2017-12-19T13:33:28.607Z,80.80
2017-12-19T13:35:56.830Z,80.80
2017-12-19T13:38:24.974Z,80.90
2017-12-19T13:40:53.098Z,81.90
2017-12-19T13:43:22.318Z,82.00
2017-12-19T13:45:50.470Z,82.00
2017-12-19T13:48:19.383Z,82.10
2017-12-19T13:50:47.504Z,82.10
2017-12-19T13:53:15.646Z,82.20
2017-12-19T13:55:43.995Z,82.30
2017-12-19T13:58:12.174Z,83.20
2017-12-19T14:00:40.312Z,84.50
2017-12-19T14:03:08.451Z,83.60
2017-12-19T14:05:36.577Z,83.90
2017-12-19T14:08:05.540Z,84.00
2017-12-19T14:10:33.672Z,84.00
2017-12-19T14:13:01.826Z,84.40
2017-12-19T14:15:30.718Z,85.20
2017-12-19T14:17:59.625Z,85.20
2017-12-19T14:20:27.742Z,85.20
2017-12-19T14:22:55.894Z,85.30
2017-12-19T14:25:24.026Z,85.20
2017-12-19T14:27:53.006Z,85.40
2017-12-19T14:30:21.149Z,85.40
2017-12-19T14:32:49.272Z,85.20
2017-12-19T14:35:18.177Z,85.30
2017-12-19T14:37:46.298Z,85.20
2017-12-19T14:40:14.429Z,85.30
2017-12-19T14:42:42.560Z,84.80
2017-12-19T14:45:10.718Z,84.70
2017-12-19T14:47:38.843Z,85.30
2017-12-19T14:50:06.991Z,85.40
2017-12-19T14:52:35.874Z,85.70
2017-12-19T14:55:04.014Z,85.70
2017-12-19T14:57:32.117Z,85.70
2017-12-19T15:00:00.259Z,86.00
2017-12-19T15:02:28.374Z,85.50
2017-12-19T15:04:57.984Z,86.60
2017-12-19T15:07:27.009Z,86.60
2017-12-19T15:09:56.029Z,86.70
2017-12-19T15:12:24.164Z,86.70
2017-12-19T15:14:52.313Z,87.00
2017-12-19T15:17:21.226Z,86.60
2017-12-19T15:19:49.376Z,86.60
2017-12-19T15:22:17.530Z,86.30
2017-12-19T15:24:45.675Z,86.00
2017-12-19T15:27:13.823Z,86.40
2017-12-19T15:29:41.979Z,86.20
2017-12-19T15:32:10.874Z,86.10
2017-12-19T15:34:39.807Z,86.00
2017-12-19T15:37:07.953Z,86.00
2017-12-19T15:39:36.274Z,85.90
2017-12-19T15:42:04.815Z,86.00
2017-12-19T15:44:33.111Z,86.40
2017-12-19T15:47:01.711Z,86.70
2017-12-19T15:49:30.783Z,86.50
2017-12-19T15:51:59.168Z,86.50
2017-12-19T15:54:27.438Z,86.90
2017-12-19T15:56:55.567Z,87.10
2017-12-19T15:59:24.033Z,87.20
2017-12-19T16:01:53.313Z,86.60
2017-12-19T16:04:21.552Z,86.60
2017-12-19T16:06:49.860Z,86.70
2017-12-19T16:09:18.009Z,87.00
2017-12-19T16:11:46.128Z,86.90
2017-12-19T16:14:14.251Z,86.30
2017-12-19T16:16:42.409Z,86.00
2017-12-19T16:19:11.463Z,86.90
2017-12-19T16:21:39.618Z,86.90
2017-12-19T16:24:07.848Z,86.60
2017-12-19T16:26:36.828Z,86.60
2017-12-19T16:29:05.734Z,86.20
2017-12-19T16:31:33.966Z,86.20
2017-12-19T16:34:03.650Z,86.00
2017-12-19T16:36:32.478Z,85.60
2017-12-19T16:39:01.429Z,86.00
2017-12-19T16:41:29.960Z,86.00
2017-12-19T16:43:58.098Z,86.10
2017-12-19T16:46:27.599Z,86.30
2017-12-19T16:48:55.718Z,86.30
2017-12-19T16:51:23.871Z,86.30
2017-12-19T16:53:52.009Z,86.20
2017-12-19T16:56:20.213Z,86.90
2017-12-19T16:58:49.163Z,86.60
2017-12-19T17:01:17.310Z,86.60
2017-12-19T17:03:45.616Z,86.60
2017-12-19T17:06:13.811Z,86.60
2017-12-19T17:08:41.930Z,87.00
2017-12-19T17:11:10.090Z,87.20
2017-12-19T17:13:38.214Z,86.80
2017-12-19T17:16:06.374Z,86.70
2017-12-19T17:18:35.265Z,86.80
2017-12-19T17:21:04.206Z,86.70
2017-12-19T17:23:32.342Z,86.70
2017-12-19T17:26:00.520Z,86.50
2017-12-19T17:28:28.660Z,86.50
2017-12-19T17:30:56.799Z,86.10
2017-12-19T17:33:24.966Z,87.20
2017-12-19T17:35:54.038Z,87.60
2017-12-19T17:38:22.200Z,87.60
2017-12-19T17:40:51.112Z,87.30
2017-12-19T17:43:19.457Z,87.30
2017-12-19T17:45:48.346Z,86.80
2017-12-19T17:48:16.497Z,86.80
2017-12-19T17:50:44.615Z,87.30
2017-12-19T17:53:12.773Z,87.60
2017-12-19T17:55:41.671Z,87.30
2017-12-19T17:58:10.586Z,87.40
2017-12-19T18:00:38.712Z,87.40
2017-12-19T18:03:07.936Z,87.30
2017-12-19T18:05:37.342Z,87.20
2017-12-19T18:08:05.710Z,87.30
2017-12-19T18:10:33.853Z,87.20
2017-12-19T18:13:02.517Z,86.80
2017-12-19T18:15:30.747Z,86.90
2017-12-19T18:17:59.764Z,87.30
2017-12-19T18:20:27.887Z,87.30
2017-12-19T18:22:56.065Z,87.20
2017-12-19T18:25:24.262Z,86.50
2017-12-19T18:27:53.178Z,86.20
2017-12-19T18:30:21.335Z,86.20
2017-12-19T18:32:50.502Z,85.20
2017-12-19T18:35:18.650Z,85.20
2017-12-19T18:37:46.794Z,85.10
2017-12-19T18:40:14.935Z,84.90
2017-12-19T18:42:43.107Z,85.80
2017-12-19T18:45:11.281Z,86.20
2017-12-19T18:47:39.417Z,87.50
2017-12-19T18:50:07.553Z,87.60
2017-12-19T18:52:35.709Z,87.00
2017-12-19T18:55:04.603Z,86.30
2017-12-19T18:57:33.522Z,86.70
2017-12-19T19:00:01.932Z,86.70
2017-12-19T19:02:30.156Z,87.40
2017-12-19T19:04:59.094Z,87.50
2017-12-19T19:07:27.253Z,87.50
2017-12-19T19:09:55.393Z,87.30
2017-12-19T19:12:24.284Z,87.70
2017-12-19T19:14:53.199Z,87.70
2017-12-19T19:17:21.354Z,87.70
2017-12-19T19:19:50.261Z,87.90
2017-12-19T19:22:18.392Z,87.90
2017-12-19T19:24:46.550Z,87.50
2017-12-19T19:27:14.678Z,87.50
2017-12-19T19:29:42.846Z,87.10
2017-12-19T19:32:10.977Z,86.80
2017-12-19T19:34:39.137Z,86.60
2017-12-19T19:37:07.286Z,86.60
2017-12-19T19:39:35.460Z,86.80
2017-12-19T19:42:03.737Z,86.60
2017-12-19T19:44:31.900Z,86.40
2017-12-19T19:47:00.039Z,86.90
2017-12-19T19:49:28.190Z,86.60
2017-12-19T19:51:56.326Z,86.50
2017-12-19T19:54:24.514Z,86.60
2017-12-19T19:56:53.274Z,87.00
2017-12-19T19:59:21.499Z,86.30
2017-12-19T20:01:49.821Z,86.20
2017-12-19T20:04:18.257Z,86.60
2017-12-19T20:06:46.646Z,87.60
2017-12-19T20:09:15.454Z,87.90
2017-12-19T20:11:44.387Z,88.40
2017-12-19T20:14:12.541Z,88.40
2017-12-19T20:16:40.745Z,87.50
2017-12-19T20:19:09.142Z,87.40
2017-12-19T20:21:37.390Z,86.70
2017-12-19T20:24:05.763Z,85.90
2017-12-19T20:26:34.734Z,87.10
2017-12-19T20:29:02.929Z,87.10
2017-12-19T20:31:31.069Z,87.80
2017-12-19T20:33:59.989Z,86.80
2017-12-19T20:36:28.107Z,86.70
2017-12-19T20:38:56.241Z,86.80
2017-12-19T20:41:24.382Z,86.70
2017-12-19T20:43:53.440Z,87.00
2017-12-19T20:46:22.489Z,87.30
2017-12-19T20:48:51.077Z,87.30
2017-12-19T20:51:19.508Z,86.80
2017-12-19T20:53:48.710Z,86.60
2017-12-19T20:56:16.878Z,86.50
2017-12-19T20:58:45.176Z,85.90
2017-12-19T21:01:13.386Z,84.30
2017-12-19T21:03:41.543Z,84.00
2017-12-19T21:06:09.747Z,84.10
2017-12-19T21:08:38.749Z,83.50
2017-12-19T21:11:06.878Z,83.50
2017-12-19T21:13:36.089Z,83.80
2017-12-19T21:16:04.212Z,84.90
2017-12-19T21:18:32.398Z,85.00
2017-12-19T21:21:03.519Z,84.10
2017-12-19T21:23:31.756Z,83.90
2017-12-19T21:26:00.170Z,83.90
2017-12-19T21:28:28.342Z,83.90
2017-12-19T21:30:56.512Z,84.20
2017-12-19T21:33:24.774Z,83.90
2017-12-19T21:35:52.932Z,83.60
2017-12-19T21:38:21.859Z,83.30
2017-12-19T21:40:49.986Z,83.40
2017-12-19T21:43:18.882Z,85.40
2017-12-19T21:45:48.115Z,85.80
2017-12-19T21:48:16.233Z,85.70
2017-12-19T21:50:44.394Z,86.30
2017-12-19T21:53:12.518Z,86.00
2017-12-19T21:55:40.743Z,86.20
2017-12-19T21:58:09.026Z,86.50
2017-12-19T22:00:37.180Z,86.50
2017-12-19T22:03:05.313Z,86.70
2017-12-19T22:05:33.456Z,86.60
2017-12-19T22:08:01.620Z,86.80
2017-12-19T22:10:29.788Z,87.70
2017-12-19T22:12:57.913Z,87.30
2017-12-19T22:15:26.063Z,87.40
2017-12-19T22:17:54.980Z,86.00
2017-12-19T22:20:23.124Z,86.00
2017-12-19T22:22:52.032Z,85.60
2017-12-19T22:25:20.188Z,85.70
2017-12-19T22:27:49.097Z,85.70
2017-12-19T22:30:17.243Z,85.60
2017-12-19T22:32:45.388Z,86.10
2017-12-19T22:35:13.579Z,86.30
2017-12-19T22:37:41.709Z,85.10
2017-12-19T22:43:09.680Z,85.00
2017-12-19T22:45:37.830Z,85.20
2017-12-19T22:48:06.719Z,85.80
2017-12-19T22:50:35.652Z,86.30
2017-12-19T22:53:04.146Z,86.20
2017-12-19T22:55:32.296Z,86.30
2017-12-19T22:58:00.427Z,85.90
2017-12-19T23:00:28.576Z,86.50
2017-12-19T23:02:56.711Z,87.30
2017-12-19T23:05:24.851Z,86.00
2017-12-19T23:07:53.738Z,86.20
2017-12-19T23:10:22.664Z,86.50
2017-12-19T23:12:50.779Z,86.50
2017-12-19T23:15:18.940Z,86.50
2017-12-19T23:17:47.067Z,86.50
2017-12-19T23:20:16.906Z,86.70
2017-12-19T23:22:45.027Z,86.70
2017-12-19T23:25:13.159Z,87.30
2017-12-19T23:27:41.291Z,86.90
2017-12-19T23:30:10.218Z,87.10
2017-12-19T23:32:38.355Z,87.10
2017-12-19T23:35:06.486Z,86.40
2017-12-19T23:37:34.611Z,85.70
2017-12-19T23:40:03.544Z,84.80
2017-12-19T23:42:31.665Z,84.80
2017-12-19T23:45:00.582Z,85.70
2017-12-19T23:47:28.707Z,85.70
2017-12-19T23:49:56.863Z,86.60
2017-12-19T23:52:25.000Z,86.90
2017-12-19T23:54:53.904Z,88.20
2017-12-19T23:57:22.037Z,88.10
2017-12-19T23:59:50.963Z,88.30
